Forside
METAR-TAF:

METAR-TAF

Lufthavne :

Southern Wisconsin Regional Airport

Janesville, Wisconsin, USA

Breddekreds: 42-37N, længdekreds: 089-02W, højde: 246 m

Aktuelle vejr

Denne rapport blev lavet for 10 minutter siden, kl. 08:35 UTC
Vind stille
Temperatur 0°C
Fugtighed 69%
Tryk 1027 hPa
Sigt: 16.1 km
Overskyet i en højde af 10000 ft

METAR: KJVL 270835Z AUTO 00000KT 10SM OVC100 00/M05 A3033 RMK AO2

Tid: 03:45 (08:45 UTC)

Vejrudsigter

Denne rapport blev lavet for 3 timer og 25 minutter siden, kl. 05:20 UTC
Foreløbig gælder fra 27 på 06 UTC til 28 på 06 UTC
Vind 4 kt fra varierende retninger
Sigt: 10 km
Spredte skyer i en højde af 12000 ft
Fra 27 på 1400 UTC
Vind 7 kt fra vest
Sigt: 10 km
Spredte skyer i en højde af 8000 ft
Fra 28 på 0200 UTC
Vind 5 kt fra sydvest
Sigt: 10 km
skyfri

TAF: KJVL 270520Z 2706/2806 VRB04KT P6SM SCT120 FM271400 26007KT P6SM SCT080 FM280200 22005KT P6SM SKC

Vejrobservationer og prognoser fra mere end 4000 lufthavne (METAR og TAF).

De gule og røde prikker repræsenterer de meteorologiske stationer.

Flyt musen over at se navnet på stationen.

Så klik over at se vejr observationer og prognoser.

At skifte det kort: Klik på de grønne knapper med et sort kors for at zoome ind; på den grønne knap med en bindestreg for at zoome ud; eller på de grønne pile for tilstødende kort.


METAR-TAF: